createdAt,value
2023-01-30T00:00:22.339Z,5.47
2023-01-30T00:03:07.862Z,4.70
2023-01-30T00:05:53.748Z,5.70
2023-01-30T00:08:39.026Z,5.30
2023-01-30T00:11:24.790Z,5.03
2023-01-30T00:14:10.329Z,4.78
2023-01-30T00:16:55.908Z,4.35
2023-01-30T00:19:41.304Z,4.00
2023-01-30T00:22:27.251Z,4.47
2023-01-30T00:25:12.313Z,4.30
2023-01-30T00:28:00.210Z,4.22
2023-01-30T00:30:52.870Z,3.97
2023-01-30T00:33:39.577Z,3.83
2023-01-30T00:36:24.623Z,3.47
2023-01-30T00:39:10.019Z,3.83
2023-01-30T00:42:13.882Z,2.88
2023-01-30T00:45:17.977Z,3.35
2023-01-30T00:48:03.568Z,2.97
2023-01-30T00:50:49.185Z,3.15
2023-01-30T00:53:34.465Z,3.60
2023-01-30T00:56:20.143Z,3.20
2023-01-30T00:59:05.437Z,2.78
2023-01-30T01:01:51.552Z,2.90
2023-01-30T01:04:43.233Z,2.88
2023-01-30T01:07:29.600Z,3.45
2023-01-30T01:10:16.449Z,3.08
2023-01-30T01:13:02.045Z,3.35
2023-01-30T01:15:49.498Z,3.28
2023-01-30T01:18:34.870Z,3.60
2023-01-30T01:21:21.342Z,3.40
2023-01-30T01:24:07.348Z,3.40
2023-01-30T01:26:52.590Z,3.53
2023-01-30T01:29:38.161Z,3.33
2023-01-30T01:32:23.680Z,3.17
2023-01-30T01:35:09.811Z,2.78
2023-01-30T01:37:56.161Z,3.13
2023-01-30T01:41:06.360Z,2.92
2023-01-30T01:44:06.029Z,4.27
2023-01-30T01:46:59.093Z,3.97
2023-01-30T01:49:44.626Z,3.47
2023-01-30T01:52:30.123Z,2.92
2023-01-30T01:55:17.623Z,3.63
2023-01-30T01:58:11.179Z,3.45
2023-01-30T02:00:59.120Z,3.80
2023-01-30T02:03:50.782Z,3.08
2023-01-30T02:06:39.903Z,3.60
2023-01-30T02:09:25.678Z,3.40
2023-01-30T02:12:14.283Z,3.30
2023-01-30T02:15:01.243Z,3.22
2023-01-30T02:17:46.671Z,3.15
2023-01-30T02:21:01.324Z,3.30
2023-01-30T02:24:21.884Z,3.25
2023-01-30T02:27:26.869Z,2.90
2023-01-30T02:30:43.663Z,2.75
2023-01-30T02:33:57.776Z,3.28
2023-01-30T02:37:16.794Z,3.05
2023-01-30T02:40:30.713Z,3.03
2023-01-30T02:43:44.101Z,3.22
2023-01-30T02:46:53.680Z,2.70
2023-01-30T02:49:48.538Z,3.28
2023-01-30T02:52:34.826Z,3.17
2023-01-30T02:55:22.073Z,3.53
2023-01-30T02:58:07.940Z,2.67
2023-01-30T03:01:03.663Z,2.78
2023-01-30T03:04:31.110Z,2.80
2023-01-30T03:07:34.852Z,2.97
2023-01-30T03:10:44.020Z,2.90
2023-01-30T03:13:48.856Z,2.88
2023-01-30T03:16:37.945Z,3.15
2023-01-30T03:19:23.438Z,3.20
2023-01-30T03:22:09.432Z,2.58
2023-01-30T03:24:55.003Z,2.70
2023-01-30T03:27:40.669Z,2.72
2023-01-30T03:30:26.785Z,3.20
2023-01-30T03:33:20.115Z,3.08
2023-01-30T03:36:07.204Z,3.25
2023-01-30T03:38:53.474Z,2.78
2023-01-30T03:41:39.515Z,3.40
2023-01-30T03:44:24.994Z,3.58
2023-01-30T03:47:11.730Z,3.50
2023-01-30T03:49:57.711Z,2.75
2023-01-30T03:52:43.182Z,2.75
2023-01-30T03:55:32.478Z,3.47
2023-01-30T03:58:18.338Z,3.42
2023-01-30T04:01:03.712Z,2.85
2023-01-30T04:03:49.587Z,3.42
2023-01-30T04:06:36.683Z,2.53
2023-01-30T04:09:22.925Z,3.10
2023-01-30T04:12:10.785Z,3.70
2023-01-30T04:15:02.582Z,2.85
2023-01-30T04:18:00.546Z,2.70
2023-01-30T04:21:08.266Z,3.00
2023-01-30T04:23:56.870Z,2.72
2023-01-30T04:26:42.115Z,2.53
2023-01-30T04:29:27.889Z,2.92
2023-01-30T04:32:13.836Z,2.67
2023-01-30T04:34:59.289Z,2.97
2023-01-30T04:37:44.644Z,3.10
2023-01-30T04:40:34.691Z,2.80
2023-01-30T04:43:21.970Z,2.65
2023-01-30T04:46:29.444Z,2.80
2023-01-30T04:49:15.430Z,3.10
2023-01-30T04:52:01.913Z,2.72
2023-01-30T04:54:47.391Z,3.22
2023-01-30T04:57:33.720Z,3.47
2023-01-30T05:00:19.381Z,3.03
2023-01-30T05:03:10.866Z,2.83
2023-01-30T05:05:56.083Z,2.90
2023-01-30T05:08:41.505Z,3.55
2023-01-30T05:11:29.474Z,3.40
2023-01-30T05:14:14.591Z,2.97
2023-01-30T05:16:59.981Z,3.08
2023-01-30T05:19:45.293Z,2.92
2023-01-30T05:22:30.651Z,3.40
2023-01-30T05:25:16.840Z,3.03
2023-01-30T05:28:02.603Z,3.50
2023-01-30T05:30:47.929Z,2.80
2023-01-30T05:33:33.510Z,3.05
2023-01-30T05:36:20.725Z,2.75
2023-01-30T05:39:06.105Z,3.17
2023-01-30T05:41:51.486Z,2.45
2023-01-30T05:44:37.112Z,2.67
2023-01-30T05:47:22.470Z,2.78
2023-01-30T05:50:08.676Z,2.90
2023-01-30T05:52:54.303Z,3.15
2023-01-30T05:55:39.645Z,2.95
2023-01-30T05:58:25.964Z,3.08
2023-01-30T06:01:13.010Z,3.20
2023-01-30T06:03:59.188Z,2.85
2023-01-30T06:06:44.654Z,3.08
2023-01-30T06:09:29.945Z,3.78
2023-01-30T06:12:15.297Z,3.85
2023-01-30T06:15:00.619Z,4.15
2023-01-30T06:17:46.080Z,4.18
2023-01-30T06:20:31.763Z,3.55
2023-01-30T06:23:17.245Z,3.88
2023-01-30T06:26:04.598Z,4.00
2023-01-30T06:28:50.881Z,3.72
2023-01-30T06:31:36.413Z,4.40
2023-01-30T06:34:21.940Z,4.13
2023-01-30T06:37:07.586Z,5.07
2023-01-30T06:39:52.797Z,4.05
2023-01-30T06:42:38.176Z,3.45
2023-01-30T06:45:23.654Z,3.92
2023-01-30T06:48:09.148Z,3.80
2023-01-30T06:50:54.782Z,4.50
2023-01-30T06:53:40.092Z,3.88
2023-01-30T06:56:25.491Z,3.65
2023-01-30T06:59:11.031Z,4.25
2023-01-30T07:01:56.186Z,4.05
2023-01-30T07:04:42.026Z,3.60
2023-01-30T07:07:27.532Z,3.42
2023-01-30T07:10:13.060Z,3.63
2023-01-30T07:12:59.237Z,3.35
2023-01-30T07:15:44.966Z,3.72
2023-01-30T07:18:30.550Z,3.47
2023-01-30T07:21:16.102Z,3.53
2023-01-30T07:24:01.995Z,3.40
2023-01-30T07:26:50.860Z,3.30
2023-01-30T07:29:37.056Z,3.10
2023-01-30T07:32:22.868Z,3.10
2023-01-30T07:35:09.025Z,3.70
2023-01-30T07:37:54.655Z,3.38
2023-01-30T07:40:40.281Z,3.45
2023-01-30T07:43:25.556Z,3.88
2023-01-30T07:46:10.949Z,2.80
2023-01-30T07:48:57.878Z,3.47
2023-01-30T07:51:44.842Z,3.63
2023-01-30T07:54:30.268Z,3.97
2023-01-30T07:57:15.686Z,3.17
2023-01-30T08:00:01.215Z,2.90
2023-01-30T08:02:46.818Z,3.67
2023-01-30T08:05:32.354Z,3.47
2023-01-30T08:08:17.835Z,3.58
2023-01-30T08:11:03.331Z,3.25
2023-01-30T08:13:48.838Z,3.10
2023-01-30T08:16:34.324Z,3.15
2023-01-30T08:19:19.858Z,3.30
2023-01-30T08:22:05.267Z,3.35
2023-01-30T08:24:50.669Z,2.95
2023-01-30T08:27:36.141Z,4.13
2023-01-30T08:30:22.639Z,4.15
2023-01-30T08:33:08.233Z,3.28
2023-01-30T08:35:55.552Z,3.85
2023-01-30T08:38:40.806Z,3.25
2023-01-30T08:41:28.212Z,3.15
2023-01-30T08:44:13.517Z,3.28
2023-01-30T08:46:59.138Z,3.63
2023-01-30T08:49:44.392Z,3.17
2023-01-30T08:52:29.993Z,3.90
2023-01-30T08:55:15.369Z,3.25
2023-01-30T08:58:00.808Z,2.97
2023-01-30T09:00:47.813Z,4.25
2023-01-30T09:03:34.343Z,3.42
2023-01-30T09:06:19.820Z,3.40
2023-01-30T09:09:05.324Z,3.42
2023-01-30T09:11:50.902Z,2.92
2023-01-30T09:14:36.287Z,3.40
2023-01-30T09:17:22.170Z,3.50
2023-01-30T09:20:09.743Z,2.65
2023-01-30T09:22:55.120Z,3.88
2023-01-30T09:25:41.516Z,3.08
2023-01-30T09:28:27.089Z,3.60
2023-01-30T09:31:13.139Z,3.67
2023-01-30T09:33:58.525Z,3.33
2023-01-30T09:36:44.340Z,3.58
2023-01-30T09:39:30.222Z,3.45
2023-01-30T09:42:37.758Z,3.40
2023-01-30T09:45:42.258Z,3.92
2023-01-30T09:48:42.576Z,3.47
2023-01-30T09:51:52.703Z,3.70
2023-01-30T09:54:42.202Z,3.33
2023-01-30T09:57:27.825Z,4.07
2023-01-30T10:00:13.607Z,4.30
2023-01-30T10:03:27.221Z,3.35
2023-01-30T10:06:14.585Z,3.80
2023-01-30T10:09:15.144Z,3.33
2023-01-30T10:12:25.756Z,3.65
2023-01-30T10:15:20.271Z,4.13
2023-01-30T10:18:14.743Z,2.95
2023-01-30T10:21:30.295Z,3.75
2023-01-30T10:24:24.619Z,3.65
2023-01-30T10:27:16.539Z,4.10
2023-01-30T10:30:06.114Z,3.60
2023-01-30T10:33:03.708Z,4.00
2023-01-30T10:36:00.284Z,4.35
2023-01-30T10:38:51.183Z,3.80
2023-01-30T10:41:41.215Z,3.70
2023-01-30T10:44:26.370Z,4.32
2023-01-30T10:47:47.613Z,3.40
2023-01-30T10:50:48.569Z,3.58
2023-01-30T10:53:42.602Z,4.05
2023-01-30T10:56:41.415Z,3.97
2023-01-30T10:59:53.109Z,4.13
2023-01-30T11:03:03.931Z,4.20
2023-01-30T11:05:52.055Z,4.00
2023-01-30T11:08:37.791Z,4.15
2023-01-30T11:11:47.389Z,4.18
2023-01-30T11:14:50.353Z,4.10
2023-01-30T11:17:45.105Z,4.38
2023-01-30T11:20:30.670Z,4.30
2023-01-30T11:23:31.656Z,4.43
2023-01-30T11:26:46.466Z,4.47
2023-01-30T11:29:35.029Z,4.57
2023-01-30T11:32:26.563Z,4.90
2023-01-30T11:35:15.159Z,4.75
2023-01-30T11:38:25.211Z,4.60
2023-01-30T11:41:10.125Z,4.63
2023-01-30T11:44:04.211Z,4.03
2023-01-30T11:46:49.863Z,4.70
2023-01-30T11:50:05.056Z,5.13
2023-01-30T11:52:50.001Z,4.03
2023-01-30T11:55:38.194Z,4.60
2023-01-30T11:58:23.411Z,4.53
2023-01-30T12:01:11.111Z,4.30
2023-01-30T12:03:58.243Z,4.68
2023-01-30T12:06:44.224Z,4.00
2023-01-30T12:09:34.431Z,5.03
2023-01-30T12:12:45.285Z,3.85
2023-01-30T12:15:37.687Z,4.15
2023-01-30T12:18:43.506Z,4.30
2023-01-30T12:21:36.661Z,4.20
2023-01-30T12:24:35.973Z,3.92
2023-01-30T12:27:31.163Z,4.30
2023-01-30T12:30:21.563Z,4.25
2023-01-30T12:33:11.417Z,4.10
2023-01-30T12:36:19.231Z,4.15
2023-01-30T12:39:38.981Z,4.03
2023-01-30T12:43:01.615Z,4.50
2023-01-30T12:45:59.558Z,4.15
2023-01-30T12:49:11.519Z,3.72
2023-01-30T12:54:57.945Z,3.90
2023-01-30T12:58:11.321Z,4.28
2023-01-30T13:01:29.854Z,5.00
2023-01-30T13:04:29.762Z,4.28
2023-01-30T13:07:30.982Z,4.53
2023-01-30T13:10:28.195Z,3.45
2023-01-30T13:13:39.752Z,5.13
2023-01-30T13:17:02.363Z,4.20
2023-01-30T13:20:01.448Z,5.40
2023-01-30T13:22:50.849Z,4.55
2023-01-30T13:26:01.779Z,4.57
2023-01-30T13:28:59.081Z,4.82
2023-01-30T13:31:54.968Z,3.92
2023-01-30T13:34:45.261Z,4.75
2023-01-30T13:37:32.054Z,4.78
2023-01-30T13:40:25.977Z,4.70
2023-01-30T13:43:16.059Z,3.92
2023-01-30T13:46:06.984Z,4.03
2023-01-30T13:49:18.156Z,4.63
2023-01-30T13:52:15.654Z,4.35
2023-01-30T13:55:13.790Z,4.07
2023-01-30T13:58:11.277Z,5.13
2023-01-30T14:00:57.921Z,4.07
2023-01-30T14:03:44.125Z,4.00
2023-01-30T14:06:38.552Z,3.67
2023-01-30T14:09:28.773Z,4.40
2023-01-30T14:12:24.108Z,4.65
2023-01-30T14:15:16.147Z,4.70
2023-01-30T14:18:07.079Z,3.78
2023-01-30T14:20:53.040Z,3.70
2023-01-30T14:23:39.616Z,3.33
2023-01-30T14:26:54.098Z,3.78
2023-01-30T14:29:40.775Z,4.40
2023-01-30T14:32:55.814Z,3.80
2023-01-30T14:35:41.143Z,3.90
2023-01-30T14:38:28.286Z,3.55
2023-01-30T14:41:28.360Z,3.85
2023-01-30T14:44:52.658Z,3.55
2023-01-30T14:47:46.533Z,4.32
2023-01-30T14:50:33.825Z,3.58
2023-01-30T14:53:24.401Z,3.30
2023-01-30T14:56:09.819Z,4.30
2023-01-30T14:59:02.704Z,3.20
2023-01-30T15:02:12.711Z,3.63
2023-01-30T15:05:13.034Z,4.10
2023-01-30T15:08:16.275Z,4.38
2023-01-30T15:11:19.413Z,4.15
2023-01-30T15:14:13.559Z,3.22
2023-01-30T15:17:07.789Z,3.55
2023-01-30T15:20:13.010Z,3.60
2023-01-30T15:23:13.445Z,3.10
2023-01-30T15:26:21.343Z,3.67
2023-01-30T15:29:27.573Z,3.47
2023-01-30T15:32:24.755Z,4.05
2023-01-30T15:35:16.063Z,4.45
2023-01-30T15:38:01.556Z,4.35
2023-01-30T15:40:47.105Z,4.32
2023-01-30T15:43:45.784Z,4.40
2023-01-30T15:46:42.200Z,3.80
2023-01-30T15:49:58.718Z,4.22
2023-01-30T15:52:48.306Z,3.95
2023-01-30T15:55:36.856Z,4.55
2023-01-30T15:58:23.552Z,3.60
2023-01-30T16:01:11.289Z,3.70
2023-01-30T16:04:00.154Z,3.88
2023-01-30T16:06:45.209Z,3.08
2023-01-30T16:09:30.666Z,2.90
2023-01-30T16:12:27.049Z,3.38
2023-01-30T16:15:19.881Z,4.43
2023-01-30T16:18:29.045Z,4.65
2023-01-30T16:21:20.253Z,3.63
2023-01-30T16:24:17.018Z,3.50
2023-01-30T16:27:07.391Z,3.20
2023-01-30T16:29:57.060Z,4.25
2023-01-30T16:32:42.827Z,3.40
2023-01-30T16:35:31.235Z,3.92
2023-01-30T16:38:36.427Z,4.88
2023-01-30T16:41:45.440Z,4.22
2023-01-30T16:44:31.987Z,4.50
2023-01-30T16:47:25.446Z,3.50
2023-01-30T16:50:22.455Z,3.20
2023-01-30T16:53:13.884Z,3.10
2023-01-30T16:56:00.977Z,3.15
2023-01-30T16:58:52.011Z,3.55
2023-01-30T17:01:40.436Z,3.42
2023-01-30T17:04:29.948Z,3.33
2023-01-30T17:07:34.024Z,2.60
2023-01-30T17:10:42.301Z,2.65
2023-01-30T17:13:44.055Z,3.45
2023-01-30T17:16:33.441Z,4.03
2023-01-30T17:19:19.020Z,2.75
2023-01-30T17:22:07.221Z,2.92
2023-01-30T17:24:56.970Z,3.25
2023-01-30T17:27:42.468Z,4.07
2023-01-30T17:30:28.219Z,4.15
2023-01-30T17:33:13.513Z,3.22
2023-01-30T17:36:03.428Z,4.13
2023-01-30T17:38:49.285Z,3.65
2023-01-30T17:41:36.768Z,3.88
2023-01-30T17:44:22.366Z,3.33
2023-01-30T17:47:11.257Z,3.17
2023-01-30T17:49:56.663Z,3.30
2023-01-30T17:52:42.264Z,3.10
2023-01-30T17:55:27.367Z,3.33
2023-01-30T17:58:17.166Z,3.03
2023-01-30T18:01:02.553Z,3.60
2023-01-30T18:03:47.918Z,3.05
2023-01-30T18:06:33.899Z,3.05
2023-01-30T18:09:21.649Z,3.00
2023-01-30T18:12:07.324Z,3.15
2023-01-30T18:14:52.784Z,3.38
2023-01-30T18:17:47.845Z,3.15
2023-01-30T18:20:33.583Z,2.88
2023-01-30T18:23:19.765Z,2.97
2023-01-30T18:26:05.793Z,2.00
2023-01-30T18:28:53.242Z,2.58
2023-01-30T18:31:40.275Z,1.95
2023-01-30T18:34:25.878Z,2.47
2023-01-30T18:37:11.595Z,2.10
2023-01-30T18:39:57.383Z,1.95
2023-01-30T18:42:42.932Z,1.83
2023-01-30T18:45:28.940Z,2.60
2023-01-30T18:48:14.470Z,2.97
2023-01-30T18:51:14.516Z,2.25
2023-01-30T18:54:00.705Z,3.30
2023-01-30T18:56:46.244Z,3.28
2023-01-30T18:59:31.896Z,3.70
2023-01-30T19:02:17.449Z,3.80
2023-01-30T19:05:03.513Z,5.75
2023-01-30T19:07:48.737Z,4.65
2023-01-30T19:10:34.221Z,3.90
2023-01-30T19:13:36.555Z,4.15
2023-01-30T19:16:28.197Z,3.35
2023-01-30T19:19:13.832Z,3.65
2023-01-30T19:21:59.257Z,4.13
2023-01-30T19:24:44.836Z,3.80
2023-01-30T19:27:30.138Z,4.40
2023-01-30T19:30:16.352Z,4.03
2023-01-30T19:33:02.160Z,4.20
2023-01-30T19:35:48.358Z,4.25
2023-01-30T19:38:33.596Z,3.67
2023-01-30T19:41:20.199Z,2.78
2023-01-30T19:44:07.823Z,3.75
2023-01-30T19:46:53.029Z,3.88
2023-01-30T19:49:38.743Z,4.68
2023-01-30T19:52:24.510Z,3.92
2023-01-30T19:55:09.998Z,3.97
2023-01-30T19:57:55.412Z,3.45
2023-01-30T20:00:40.919Z,3.70
2023-01-30T20:03:26.347Z,4.15
2023-01-30T20:06:21.250Z,3.78
2023-01-30T20:09:09.687Z,3.50
2023-01-30T20:11:54.841Z,4.93
2023-01-30T20:14:40.303Z,4.38
2023-01-30T20:17:25.966Z,3.65
2023-01-30T20:20:11.856Z,4.00
2023-01-30T20:22:59.789Z,4.03
2023-01-30T20:25:46.643Z,3.70
2023-01-30T20:28:33.182Z,4.28
2023-01-30T20:31:21.974Z,3.88
2023-01-30T20:34:11.029Z,3.60
2023-01-30T20:36:56.230Z,3.38
2023-01-30T20:39:41.763Z,2.80
2023-01-30T20:42:27.718Z,2.60
2023-01-30T20:45:13.168Z,2.70
2023-01-30T20:47:59.208Z,2.85
2023-01-30T20:50:44.468Z,2.97
2023-01-30T20:53:30.526Z,3.28
2023-01-30T20:56:16.308Z,2.78
2023-01-30T20:59:03.887Z,3.28
2023-01-30T21:01:50.397Z,3.53
2023-01-30T21:04:37.439Z,3.25
2023-01-30T21:07:23.070Z,2.38
2023-01-30T21:10:10.306Z,2.30
2023-01-30T21:12:55.692Z,2.75
2023-01-30T21:15:41.398Z,3.45
2023-01-30T21:18:29.985Z,2.38
2023-01-30T21:21:20.021Z,2.60
2023-01-30T21:24:12.210Z,2.10
2023-01-30T21:26:57.499Z,2.10
2023-01-30T21:29:43.028Z,2.10
2023-01-30T21:32:28.579Z,1.98
2023-01-30T21:35:14.020Z,2.80
2023-01-30T21:38:17.995Z,2.75
2023-01-30T21:41:21.840Z,2.20
2023-01-30T21:44:07.965Z,2.42
2023-01-30T21:46:53.553Z,2.25
2023-01-30T21:49:40.465Z,2.35
2023-01-30T21:52:25.659Z,2.20
2023-01-30T21:55:11.074Z,1.95
2023-01-30T21:57:57.268Z,2.20
2023-01-30T22:00:42.293Z,2.20
2023-01-30T22:03:28.001Z,1.75
2023-01-30T22:06:13.333Z,1.80
2023-01-30T22:09:00.588Z,2.10
2023-01-30T22:11:46.219Z,1.85
2023-01-30T22:14:33.134Z,2.00
2023-01-30T22:17:18.525Z,1.95
2023-01-30T22:20:04.481Z,1.90
2023-01-30T22:22:49.532Z,1.90
2023-01-30T22:25:35.063Z,1.92
2023-01-30T22:28:20.593Z,1.55
2023-01-30T22:31:07.181Z,1.67
2023-01-30T22:33:55.193Z,2.10
2023-01-30T22:36:40.478Z,2.30
2023-01-30T22:39:26.020Z,2.20
2023-01-30T22:42:11.789Z,2.28
2023-01-30T22:44:56.852Z,2.00
2023-01-30T22:47:42.346Z,2.00
2023-01-30T22:50:27.865Z,2.10
2023-01-30T22:53:13.632Z,1.80
2023-01-30T22:56:04.068Z,1.65
2023-01-30T22:58:50.770Z,1.98
2023-01-30T23:01:39.341Z,1.80
2023-01-30T23:04:24.675Z,1.80
2023-01-30T23:07:13.201Z,1.67
2023-01-30T23:09:58.664Z,2.13
2023-01-30T23:13:02.795Z,2.00
2023-01-30T23:15:48.415Z,2.78
2023-01-30T23:18:53.006Z,2.53
2023-01-30T23:21:40.371Z,2.55
2023-01-30T23:24:25.928Z,2.00
2023-01-30T23:27:11.509Z,1.98
2023-01-30T23:29:56.977Z,2.10
2023-01-30T23:32:42.449Z,1.67
2023-01-30T23:35:27.910Z,2.25
2023-01-30T23:38:15.933Z,1.95
2023-01-30T23:41:10.938Z,1.85
2023-01-30T23:43:57.533Z,1.80
2023-01-30T23:46:43.205Z,1.67
2023-01-30T23:49:28.610Z,2.50
2023-01-30T23:52:14.286Z,2.30
2023-01-30T23:54:59.766Z,1.83
2023-01-30T23:57:45.260Z,2.20
